sensor_id;sensor_type;location;lat;lon;timestamp;P1;durP1;ratioP1;P2;durP2;ratioP2
24216;SDS011;12356;49.386;8.688;2023-07-22T00:01:47;2.35;;;2.10;;
24216;SDS011;12356;49.386;8.688;2023-07-22T00:04:18;4.78;;;2.47;;
24216;SDS011;12356;49.386;8.688;2023-07-22T00:06:48;3.35;;;2.30;;
24216;SDS011;12356;49.386;8.688;2023-07-22T00:09:19;3.38;;;2.15;;
24216;SDS011;12356;49.386;8.688;2023-07-22T00:11:50;2.63;;;2.10;;
24216;SDS011;12356;49.386;8.688;2023-07-22T00:14:20;4.32;;;2.05;;
24216;SDS011;12356;49.386;8.688;2023-07-22T00:16:51;3.95;;;2.20;;
24216;SDS011;12356;49.386;8.688;2023-07-22T00:19:21;3.67;;;2.10;;
24216;SDS011;12356;49.386;8.688;2023-07-22T00:21:53;2.47;;;2.20;;
24216;SDS011;12356;49.386;8.688;2023-07-22T00:24:25;2.55;;;2.05;;
24216;SDS011;12356;49.386;8.688;2023-07-22T00:26:55;2.67;;;2.13;;
24216;SDS011;12356;49.386;8.688;2023-07-22T00:29:26;3.90;;;2.20;;
24216;SDS011;12356;49.386;8.688;2023-07-22T00:31:56;5.15;;;2.15;;
24216;SDS011;12356;49.386;8.688;2023-07-22T00:34:27;3.15;;;2.33;;
24216;SDS011;12356;49.386;8.688;2023-07-22T00:36:57;2.75;;;2.22;;
24216;SDS011;12356;49.386;8.688;2023-07-22T00:39:29;2.85;;;2.20;;
24216;SDS011;12356;49.386;8.688;2023-07-22T00:41:59;3.42;;;2.22;;
24216;SDS011;12356;49.386;8.688;2023-07-22T00:44:30;3.38;;;2.20;;
24216;SDS011;12356;49.386;8.688;2023-07-22T00:47:00;3.55;;;2.42;;
24216;SDS011;12356;49.386;8.688;2023-07-22T00:49:32;3.90;;;2.05;;
24216;SDS011;12356;49.386;8.688;2023-07-22T00:52:02;3.58;;;2.20;;
24216;SDS011;12356;49.386;8.688;2023-07-22T00:54:33;3.63;;;2.08;;
24216;SDS011;12356;49.386;8.688;2023-07-22T00:57:03;2.63;;;2.13;;
24216;SDS011;12356;49.386;8.688;2023-07-22T00:59:34;2.83;;;2.10;;
24216;SDS011;12356;49.386;8.688;2023-07-22T01:02:05;3.25;;;2.28;;
24216;SDS011;12356;49.386;8.688;2023-07-22T01:04:36;2.70;;;2.20;;
24216;SDS011;12356;49.386;8.688;2023-07-22T01:07:07;3.05;;;2.35;;
24216;SDS011;12356;49.386;8.688;2023-07-22T01:12:11;4.50;;;2.33;;
24216;SDS011;12356;49.386;8.688;2023-07-22T01:14:43;2.67;;;2.38;;
24216;SDS011;12356;49.386;8.688;2023-07-22T01:17:14;3.40;;;2.67;;
24216;SDS011;12356;49.386;8.688;2023-07-22T01:19:44;2.70;;;2.25;;
24216;SDS011;12356;49.386;8.688;2023-07-22T01:22:16;4.13;;;2.40;;
24216;SDS011;12356;49.386;8.688;2023-07-22T01:24:48;2.60;;;2.40;;
24216;SDS011;12356;49.386;8.688;2023-07-22T01:27:18;3.22;;;2.70;;
24216;SDS011;12356;49.386;8.688;2023-07-22T01:29:52;3.45;;;2.35;;
24216;SDS011;12356;49.386;8.688;2023-07-22T01:32:23;3.85;;;2.30;;
24216;SDS011;12356;49.386;8.688;2023-07-22T01:34:54;3.47;;;2.20;;
24216;SDS011;12356;49.386;8.688;2023-07-22T01:37:24;2.55;;;2.13;;
24216;SDS011;12356;49.386;8.688;2023-07-22T01:39:55;2.92;;;2.30;;
24216;SDS011;12356;49.386;8.688;2023-07-22T01:42:27;3.43;;;2.30;;
24216;SDS011;12356;49.386;8.688;2023-07-22T01:44:57;3.03;;;2.50;;
24216;SDS011;12356;49.386;8.688;2023-07-22T01:47:28;2.60;;;2.30;;
24216;SDS011;12356;49.386;8.688;2023-07-22T01:49:59;3.80;;;2.55;;
24216;SDS011;12356;49.386;8.688;2023-07-22T01:52:29;4.45;;;2.40;;
24216;SDS011;12356;49.386;8.688;2023-07-22T01:55:00;2.72;;;2.40;;
24216;SDS011;12356;49.386;8.688;2023-07-22T01:57:31;9.73;;;2.90;;
24216;SDS011;12356;49.386;8.688;2023-07-22T02:00:02;2.53;;;2.22;;
24216;SDS011;12356;49.386;8.688;2023-07-22T02:02:35;4.30;;;2.45;;
24216;SDS011;12356;49.386;8.688;2023-07-22T02:05:05;5.40;;;2.78;;
24216;SDS011;12356;49.386;8.688;2023-07-22T02:07:36;3.03;;;2.22;;
24216;SDS011;12356;49.386;8.688;2023-07-22T02:10:07;3.80;;;2.50;;
24216;SDS011;12356;49.386;8.688;2023-07-22T02:12:39;4.32;;;2.65;;
24216;SDS011;12356;49.386;8.688;2023-07-22T02:15:10;4.40;;;2.38;;
24216;SDS011;12356;49.386;8.688;2023-07-22T02:17:40;3.33;;;2.58;;
24216;SDS011;12356;49.386;8.688;2023-07-22T02:20:11;3.05;;;2.50;;
24216;SDS011;12356;49.386;8.688;2023-07-22T02:22:42;2.53;;;2.30;;
24216;SDS011;12356;49.386;8.688;2023-07-22T02:25:13;3.65;;;2.30;;
24216;SDS011;12356;49.386;8.688;2023-07-22T02:27:44;3.13;;;2.60;;
24216;SDS011;12356;49.386;8.688;2023-07-22T02:30:16;3.22;;;2.30;;
24216;SDS011;12356;49.386;8.688;2023-07-22T02:32:47;4.15;;;2.50;;
24216;SDS011;12356;49.386;8.688;2023-07-22T02:35:18;3.40;;;2.72;;
24216;SDS011;12356;49.386;8.688;2023-07-22T02:37:48;3.10;;;2.60;;
24216;SDS011;12356;49.386;8.688;2023-07-22T02:40:19;3.47;;;2.35;;
24216;SDS011;12356;49.386;8.688;2023-07-22T02:42:49;3.22;;;2.30;;
24216;SDS011;12356;49.386;8.688;2023-07-22T02:45:20;3.92;;;2.40;;
24216;SDS011;12356;49.386;8.688;2023-07-22T02:47:50;2.65;;;2.40;;
24216;SDS011;12356;49.386;8.688;2023-07-22T02:50:21;3.10;;;2.70;;
24216;SDS011;12356;49.386;8.688;2023-07-22T02:52:52;2.60;;;2.40;;
24216;SDS011;12356;49.386;8.688;2023-07-22T02:55:22;2.63;;;2.42;;
24216;SDS011;12356;49.386;8.688;2023-07-22T02:57:53;3.03;;;2.40;;
24216;SDS011;12356;49.386;8.688;2023-07-22T03:00:24;3.80;;;2.53;;
24216;SDS011;12356;49.386;8.688;2023-07-22T03:02:55;4.93;;;2.90;;
24216;SDS011;12356;49.386;8.688;2023-07-22T03:05:34;5.50;;;2.60;;
24216;SDS011;12356;49.386;8.688;2023-07-22T03:08:05;3.83;;;2.50;;
24216;SDS011;12356;49.386;8.688;2023-07-22T03:10:37;4.82;;;2.80;;
24216;SDS011;12356;49.386;8.688;2023-07-22T03:13:07;2.88;;;2.50;;
24216;SDS011;12356;49.386;8.688;2023-07-22T03:15:38;6.40;;;3.10;;
24216;SDS011;12356;49.386;8.688;2023-07-22T03:18:08;6.53;;;3.03;;
24216;SDS011;12356;49.386;8.688;2023-07-22T03:20:42;6.22;;;3.10;;
24216;SDS011;12356;49.386;8.688;2023-07-22T03:23:12;6.32;;;3.05;;
24216;SDS011;12356;49.386;8.688;2023-07-22T03:25:43;4.95;;;3.30;;
24216;SDS011;12356;49.386;8.688;2023-07-22T03:28:13;3.88;;;3.03;;
24216;SDS011;12356;49.386;8.688;2023-07-22T03:30:44;4.30;;;2.83;;
24216;SDS011;12356;49.386;8.688;2023-07-22T03:33:15;3.00;;;2.60;;
24216;SDS011;12356;49.386;8.688;2023-07-22T03:35:45;5.95;;;3.33;;
24216;SDS011;12356;49.386;8.688;2023-07-22T03:38:16;3.75;;;2.80;;
24216;SDS011;12356;49.386;8.688;2023-07-22T03:40:47;3.20;;;2.75;;
24216;SDS011;12356;49.386;8.688;2023-07-22T03:43:17;3.05;;;2.75;;
24216;SDS011;12356;49.386;8.688;2023-07-22T03:45:48;4.72;;;2.72;;
24216;SDS011;12356;49.386;8.688;2023-07-22T03:48:18;3.72;;;2.75;;
24216;SDS011;12356;49.386;8.688;2023-07-22T03:50:49;3.47;;;2.60;;
24216;SDS011;12356;49.386;8.688;2023-07-22T03:53:19;5.25;;;2.80;;
24216;SDS011;12356;49.386;8.688;2023-07-22T03:55:50;5.75;;;2.90;;
24216;SDS011;12356;49.386;8.688;2023-07-22T03:58:20;4.57;;;2.90;;
24216;SDS011;12356;49.386;8.688;2023-07-22T04:00:51;4.03;;;2.78;;
24216;SDS011;12356;49.386;8.688;2023-07-22T04:03:21;3.70;;;3.00;;
24216;SDS011;12356;49.386;8.688;2023-07-22T04:05:55;3.70;;;2.60;;
24216;SDS011;12356;49.386;8.688;2023-07-22T04:08:26;3.03;;;2.55;;
24216;SDS011;12356;49.386;8.688;2023-07-22T04:10:57;3.90;;;2.88;;
24216;SDS011;12356;49.386;8.688;2023-07-22T04:13:28;4.82;;;3.42;;
24216;SDS011;12356;49.386;8.688;2023-07-22T04:15:59;4.55;;;2.65;;
24216;SDS011;12356;49.386;8.688;2023-07-22T04:18:30;4.18;;;2.90;;
24216;SDS011;12356;49.386;8.688;2023-07-22T04:21:04;4.15;;;3.30;;
24216;SDS011;12356;49.386;8.688;2023-07-22T04:23:35;3.58;;;3.08;;
24216;SDS011;12356;49.386;8.688;2023-07-22T04:26:05;4.43;;;3.42;;
24216;SDS011;12356;49.386;8.688;2023-07-22T04:28:37;3.80;;;3.30;;
24216;SDS011;12356;49.386;8.688;2023-07-22T04:31:08;6.30;;;3.30;;
24216;SDS011;12356;49.386;8.688;2023-07-22T04:33:39;4.20;;;3.25;;
24216;SDS011;12356;49.386;8.688;2023-07-22T04:36:11;5.15;;;3.47;;
24216;SDS011;12356;49.386;8.688;2023-07-22T04:38:42;7.60;;;3.78;;
24216;SDS011;12356;49.386;8.688;2023-07-22T04:41:12;5.05;;;3.20;;
24216;SDS011;12356;49.386;8.688;2023-07-22T04:43:43;4.68;;;2.97;;
24216;SDS011;12356;49.386;8.688;2023-07-22T04:46:13;4.72;;;3.30;;
24216;SDS011;12356;49.386;8.688;2023-07-22T04:48:45;3.92;;;3.10;;
24216;SDS011;12356;49.386;8.688;2023-07-22T04:51:16;4.82;;;3.22;;
24216;SDS011;12356;49.386;8.688;2023-07-22T04:53:46;4.50;;;3.20;;
24216;SDS011;12356;49.386;8.688;2023-07-22T04:56:17;3.83;;;3.25;;
24216;SDS011;12356;49.386;8.688;2023-07-22T04:58:48;5.20;;;4.28;;
24216;SDS011;12356;49.386;8.688;2023-07-22T05:01:19;4.18;;;3.65;;
24216;SDS011;12356;49.386;8.688;2023-07-22T05:03:50;4.72;;;3.30;;
24216;SDS011;12356;49.386;8.688;2023-07-22T05:06:20;3.83;;;3.42;;
24216;SDS011;12356;49.386;8.688;2023-07-22T05:08:51;6.00;;;3.53;;
24216;SDS011;12356;49.386;8.688;2023-07-22T05:11:22;6.78;;;3.85;;
24216;SDS011;12356;49.386;8.688;2023-07-22T05:13:53;6.90;;;3.80;;
24216;SDS011;12356;49.386;8.688;2023-07-22T05:16:24;4.65;;;3.60;;
24216;SDS011;12356;49.386;8.688;2023-07-22T05:18:54;4.40;;;3.67;;
24216;SDS011;12356;49.386;8.688;2023-07-22T05:21:25;5.85;;;3.35;;
24216;SDS011;12356;49.386;8.688;2023-07-22T05:23:55;8.25;;;3.42;;
24216;SDS011;12356;49.386;8.688;2023-07-22T05:26:26;4.32;;;3.35;;
24216;SDS011;12356;49.386;8.688;2023-07-22T05:28:56;5.93;;;3.50;;
24216;SDS011;12356;49.386;8.688;2023-07-22T05:31:27;4.10;;;3.38;;
24216;SDS011;12356;49.386;8.688;2023-07-22T05:33:58;5.20;;;3.58;;
24216;SDS011;12356;49.386;8.688;2023-07-22T05:36:28;4.25;;;3.50;;
24216;SDS011;12356;49.386;8.688;2023-07-22T05:38:59;4.68;;;3.78;;
24216;SDS011;12356;49.386;8.688;2023-07-22T05:41:29;4.25;;;2.90;;
24216;SDS011;12356;49.386;8.688;2023-07-22T05:44:00;5.93;;;3.20;;
24216;SDS011;12356;49.386;8.688;2023-07-22T05:46:30;4.22;;;3.13;;
24216;SDS011;12356;49.386;8.688;2023-07-22T05:49:01;5.15;;;3.15;;
24216;SDS011;12356;49.386;8.688;2023-07-22T05:51:31;4.93;;;3.20;;
24216;SDS011;12356;49.386;8.688;2023-07-22T05:54:02;5.13;;;3.17;;
24216;SDS011;12356;49.386;8.688;2023-07-22T05:56:33;7.63;;;3.25;;
24216;SDS011;12356;49.386;8.688;2023-07-22T05:59:04;3.83;;;3.03;;
24216;SDS011;12356;49.386;8.688;2023-07-22T06:01:34;4.30;;;3.10;;
24216;SDS011;12356;49.386;8.688;2023-07-22T06:04:05;4.97;;;3.30;;
24216;SDS011;12356;49.386;8.688;2023-07-22T06:06:35;5.80;;;3.28;;
24216;SDS011;12356;49.386;8.688;2023-07-22T06:09:06;4.53;;;3.30;;
24216;SDS011;12356;49.386;8.688;2023-07-22T06:11:37;4.72;;;3.10;;
24216;SDS011;12356;49.386;8.688;2023-07-22T06:14:07;3.88;;;3.10;;
24216;SDS011;12356;49.386;8.688;2023-07-22T06:16:38;4.72;;;2.97;;
24216;SDS011;12356;49.386;8.688;2023-07-22T06:19:08;4.88;;;3.03;;
24216;SDS011;12356;49.386;8.688;2023-07-22T06:21:39;4.03;;;2.92;;
24216;SDS011;12356;49.386;8.688;2023-07-22T06:24:10;5.57;;;3.03;;
24216;SDS011;12356;49.386;8.688;2023-07-22T06:26:40;5.22;;;3.30;;
24216;SDS011;12356;49.386;8.688;2023-07-22T06:29:11;3.30;;;2.80;;
24216;SDS011;12356;49.386;8.688;2023-07-22T06:31:41;6.80;;;3.30;;
24216;SDS011;12356;49.386;8.688;2023-07-22T06:34:12;3.78;;;3.00;;
24216;SDS011;12356;49.386;8.688;2023-07-22T06:36:42;5.90;;;2.83;;
24216;SDS011;12356;49.386;8.688;2023-07-22T06:39:13;4.50;;;2.80;;
24216;SDS011;12356;49.386;8.688;2023-07-22T06:41:44;3.78;;;2.63;;
24216;SDS011;12356;49.386;8.688;2023-07-22T06:44:14;4.93;;;2.75;;
24216;SDS011;12356;49.386;8.688;2023-07-22T06:46:45;4.80;;;2.50;;
24216;SDS011;12356;49.386;8.688;2023-07-22T06:49:16;3.83;;;2.70;;
24216;SDS011;12356;49.386;8.688;2023-07-22T06:51:47;5.47;;;2.80;;
24216;SDS011;12356;49.386;8.688;2023-07-22T06:54:17;4.57;;;2.95;;
24216;SDS011;12356;49.386;8.688;2023-07-22T06:56:48;4.93;;;2.55;;
24216;SDS011;12356;49.386;8.688;2023-07-22T06:59:18;5.00;;;2.67;;
24216;SDS011;12356;49.386;8.688;2023-07-22T07:01:49;3.60;;;2.60;;
24216;SDS011;12356;49.386;8.688;2023-07-22T07:04:20;3.85;;;2.60;;
24216;SDS011;12356;49.386;8.688;2023-07-22T07:06:51;6.32;;;2.80;;
24216;SDS011;12356;49.386;8.688;2023-07-22T07:09:21;4.90;;;2.95;;
24216;SDS011;12356;49.386;8.688;2023-07-22T07:11:52;3.28;;;2.65;;
24216;SDS011;12356;49.386;8.688;2023-07-22T07:14:22;3.70;;;2.50;;
24216;SDS011;12356;49.386;8.688;2023-07-22T07:16:54;4.18;;;2.72;;
24216;SDS011;12356;49.386;8.688;2023-07-22T07:19:25;6.22;;;2.55;;
24216;SDS011;12356;49.386;8.688;2023-07-22T07:21:56;4.78;;;2.70;;
24216;SDS011;12356;49.386;8.688;2023-07-22T07:24:27;5.07;;;2.50;;
24216;SDS011;12356;49.386;8.688;2023-07-22T07:26:58;4.05;;;2.90;;
24216;SDS011;12356;49.386;8.688;2023-07-22T07:29:28;3.90;;;2.50;;
24216;SDS011;12356;49.386;8.688;2023-07-22T07:31:59;7.28;;;3.20;;
24216;SDS011;12356;49.386;8.688;2023-07-22T07:34:29;4.60;;;3.00;;
24216;SDS011;12356;49.386;8.688;2023-07-22T07:37:00;5.25;;;2.90;;
24216;SDS011;12356;49.386;8.688;2023-07-22T07:39:30;8.27;;;3.30;;
24216;SDS011;12356;49.386;8.688;2023-07-22T07:42:01;3.60;;;2.80;;
24216;SDS011;12356;49.386;8.688;2023-07-22T07:44:31;4.43;;;2.80;;
24216;SDS011;12356;49.386;8.688;2023-07-22T07:47:02;3.80;;;2.90;;
24216;SDS011;12356;49.386;8.688;2023-07-22T07:49:33;6.38;;;2.80;;
24216;SDS011;12356;49.386;8.688;2023-07-22T07:52:04;5.00;;;2.72;;
24216;SDS011;12356;49.386;8.688;2023-07-22T07:54:34;5.38;;;2.85;;
24216;SDS011;12356;49.386;8.688;2023-07-22T07:57:05;3.38;;;2.50;;
24216;SDS011;12356;49.386;8.688;2023-07-22T07:59:36;6.45;;;2.90;;
24216;SDS011;12356;49.386;8.688;2023-07-22T08:02:06;7.93;;;2.78;;
24216;SDS011;12356;49.386;8.688;2023-07-22T08:07:10;4.97;;;2.75;;
24216;SDS011;12356;49.386;8.688;2023-07-22T08:09:46;4.57;;;2.85;;
24216;SDS011;12356;49.386;8.688;2023-07-22T08:12:19;5.00;;;2.85;;
24216;SDS011;12356;49.386;8.688;2023-07-22T08:14:49;3.35;;;2.67;;
24216;SDS011;12356;49.386;8.688;2023-07-22T08:17:22;5.55;;;2.85;;
24216;SDS011;12356;49.386;8.688;2023-07-22T08:19:52;5.45;;;2.78;;
24216;SDS011;12356;49.386;8.688;2023-07-22T08:22:23;3.80;;;2.40;;
24216;SDS011;12356;49.386;8.688;2023-07-22T08:24:53;5.63;;;2.80;;
24216;SDS011;12356;49.386;8.688;2023-07-22T08:27:24;3.50;;;2.50;;
24216;SDS011;12356;49.386;8.688;2023-07-22T08:29:55;3.85;;;2.58;;
24216;SDS011;12356;49.386;8.688;2023-07-22T08:32:25;4.50;;;2.58;;
24216;SDS011;12356;49.386;8.688;2023-07-22T08:34:56;4.93;;;2.70;;
24216;SDS011;12356;49.386;8.688;2023-07-22T08:37:26;3.33;;;2.40;;
24216;SDS011;12356;49.386;8.688;2023-07-22T08:39:57;6.53;;;2.55;;
24216;SDS011;12356;49.386;8.688;2023-07-22T08:42:28;5.70;;;2.70;;
24216;SDS011;12356;49.386;8.688;2023-07-22T08:45:01;4.28;;;2.30;;
24216;SDS011;12356;49.386;8.688;2023-07-22T08:47:33;3.08;;;2.53;;
24216;SDS011;12356;49.386;8.688;2023-07-22T08:50:07;7.93;;;2.58;;
24216;SDS011;12356;49.386;8.688;2023-07-22T08:52:39;4.65;;;2.58;;
24216;SDS011;12356;49.386;8.688;2023-07-22T08:55:10;5.60;;;2.33;;
24216;SDS011;12356;49.386;8.688;2023-07-22T08:57:40;4.00;;;2.47;;
24216;SDS011;12356;49.386;8.688;2023-07-22T09:00:12;4.68;;;2.28;;
24216;SDS011;12356;49.386;8.688;2023-07-22T09:02:43;7.07;;;2.90;;
24216;SDS011;12356;49.386;8.688;2023-07-22T09:05:14;5.70;;;2.50;;
24216;SDS011;12356;49.386;8.688;2023-07-22T09:07:47;3.60;;;2.17;;
24216;SDS011;12356;49.386;8.688;2023-07-22T09:10:18;6.22;;;2.38;;
24216;SDS011;12356;49.386;8.688;2023-07-22T09:12:51;5.23;;;2.43;;
24216;SDS011;12356;49.386;8.688;2023-07-22T09:15:22;6.07;;;2.60;;
24216;SDS011;12356;49.386;8.688;2023-07-22T09:17:53;7.00;;;2.63;;
24216;SDS011;12356;49.386;8.688;2023-07-22T09:20:24;7.65;;;2.50;;
24216;SDS011;12356;49.386;8.688;2023-07-22T09:22:56;3.38;;;2.50;;
24216;SDS011;12356;49.386;8.688;2023-07-22T09:25:27;6.07;;;2.60;;
24216;SDS011;12356;49.386;8.688;2023-07-22T09:27:59;6.85;;;2.78;;
24216;SDS011;12356;49.386;8.688;2023-07-22T09:30:33;7.35;;;2.30;;
24216;SDS011;12356;49.386;8.688;2023-07-22T09:33:06;3.05;;;2.60;;
24216;SDS011;12356;49.386;8.688;2023-07-22T09:35:52;3.60;;;2.33;;
24216;SDS011;12356;49.386;8.688;2023-07-22T09:40:55;3.08;;;2.33;;
24216;SDS011;12356;49.386;8.688;2023-07-22T09:43:26;5.10;;;2.33;;
24216;SDS011;12356;49.386;8.688;2023-07-22T09:46:05;3.70;;;2.53;;
24216;SDS011;12356;49.386;8.688;2023-07-22T09:48:45;3.58;;;2.47;;
24216;SDS011;12356;49.386;8.688;2023-07-22T09:51:16;3.97;;;2.55;;
24216;SDS011;12356;49.386;8.688;2023-07-22T09:53:47;6.30;;;2.40;;
24216;SDS011;12356;49.386;8.688;2023-07-22T09:56:28;4.30;;;2.50;;
24216;SDS011;12356;49.386;8.688;2023-07-22T09:58:59;3.35;;;2.35;;
24216;SDS011;12356;49.386;8.688;2023-07-22T10:01:37;4.13;;;2.22;;
24216;SDS011;12356;49.386;8.688;2023-07-22T10:04:09;5.93;;;2.45;;
24216;SDS011;12356;49.386;8.688;2023-07-22T10:06:41;4.18;;;2.40;;
24216;SDS011;12356;49.386;8.688;2023-07-22T10:09:13;6.55;;;2.45;;
24216;SDS011;12356;49.386;8.688;2023-07-22T10:11:45;4.32;;;2.38;;
24216;SDS011;12356;49.386;8.688;2023-07-22T10:14:16;5.85;;;2.30;;
24216;SDS011;12356;49.386;8.688;2023-07-22T10:16:48;6.88;;;2.35;;
24216;SDS011;12356;49.386;8.688;2023-07-22T10:19:19;7.43;;;2.55;;
24216;SDS011;12356;49.386;8.688;2023-07-22T10:21:52;10.35;;;2.35;;
24216;SDS011;12356;49.386;8.688;2023-07-22T10:24:23;5.22;;;2.80;;
24216;SDS011;12356;49.386;8.688;2023-07-22T10:26:54;4.57;;;2.42;;
24216;SDS011;12356;49.386;8.688;2023-07-22T10:29:25;5.47;;;2.30;;
24216;SDS011;12356;49.386;8.688;2023-07-22T10:31:56;5.03;;;2.17;;
24216;SDS011;12356;49.386;8.688;2023-07-22T10:34:27;4.15;;;1.80;;
24216;SDS011;12356;49.386;8.688;2023-07-22T10:36:57;5.32;;;1.83;;
24216;SDS011;12356;49.386;8.688;2023-07-22T10:39:28;5.13;;;2.20;;
24216;SDS011;12356;49.386;8.688;2023-07-22T10:42:02;3.22;;;1.95;;
24216;SDS011;12356;49.386;8.688;2023-07-22T10:44:37;3.35;;;2.00;;
24216;SDS011;12356;49.386;8.688;2023-07-22T10:47:08;3.55;;;2.00;;
24216;SDS011;12356;49.386;8.688;2023-07-22T10:49:43;2.42;;;1.60;;
24216;SDS011;12356;49.386;8.688;2023-07-22T10:52:37;3.00;;;2.00;;
24216;SDS011;12356;49.386;8.688;2023-07-22T10:55:17;3.85;;;1.92;;
24216;SDS011;12356;49.386;8.688;2023-07-22T10:57:53;6.10;;;2.33;;
24216;SDS011;12356;49.386;8.688;2023-07-22T11:00:28;3.72;;;2.00;;
24216;SDS011;12356;49.386;8.688;2023-07-22T11:03:09;3.50;;;1.95;;
24216;SDS011;12356;49.386;8.688;2023-07-22T11:05:47;2.47;;;1.90;;
24216;SDS011;12356;49.386;8.688;2023-07-22T11:08:34;2.83;;;2.00;;
24216;SDS011;12356;49.386;8.688;2023-07-22T11:11:09;2.70;;;1.83;;
24216;SDS011;12356;49.386;8.688;2023-07-22T11:13:41;3.75;;;1.80;;
24216;SDS011;12356;49.386;8.688;2023-07-22T11:16:12;5.45;;;1.85;;
24216;SDS011;12356;49.386;8.688;2023-07-22T11:18:43;2.75;;;1.80;;
24216;SDS011;12356;49.386;8.688;2023-07-22T11:21:13;1.88;;;1.73;;
24216;SDS011;12356;49.386;8.688;2023-07-22T11:23:44;1.98;;;1.70;;
24216;SDS011;12356;49.386;8.688;2023-07-22T11:26:14;2.72;;;1.80;;
24216;SDS011;12356;49.386;8.688;2023-07-22T11:28:46;3.88;;;1.70;;
24216;SDS011;12356;49.386;8.688;2023-07-22T11:31:16;4.00;;;1.77;;
24216;SDS011;12356;49.386;8.688;2023-07-22T11:33:47;2.90;;;1.88;;
24216;SDS011;12356;49.386;8.688;2023-07-22T11:36:18;5.03;;;1.60;;
24216;SDS011;12356;49.386;8.688;2023-07-22T11:38:49;3.42;;;1.67;;
24216;SDS011;12356;49.386;8.688;2023-07-22T11:41:20;2.72;;;1.70;;
24216;SDS011;12356;49.386;8.688;2023-07-22T11:43:51;2.80;;;2.00;;
24216;SDS011;12356;49.386;8.688;2023-07-22T11:46:21;2.35;;;1.70;;
24216;SDS011;12356;49.386;8.688;2023-07-22T11:48:52;4.38;;;1.88;;
24216;SDS011;12356;49.386;8.688;2023-07-22T11:51:24;2.17;;;1.70;;
24216;SDS011;12356;49.386;8.688;2023-07-22T11:53:55;3.65;;;1.70;;
24216;SDS011;12356;49.386;8.688;2023-07-22T11:56:26;1.80;;;1.70;;
24216;SDS011;12356;49.386;8.688;2023-07-22T11:58:58;4.20;;;1.80;;
24216;SDS011;12356;49.386;8.688;2023-07-22T12:01:31;5.43;;;1.70;;
24216;SDS011;12356;49.386;8.688;2023-07-22T12:04:03;3.60;;;1.95;;
24216;SDS011;12356;49.386;8.688;2023-07-22T12:06:43;2.42;;;1.80;;
24216;SDS011;12356;49.386;8.688;2023-07-22T12:09:14;2.90;;;2.00;;
24216;SDS011;12356;49.386;8.688;2023-07-22T12:11:44;4.20;;;2.15;;
24216;SDS011;12356;49.386;8.688;2023-07-22T12:14:15;6.25;;;1.75;;
24216;SDS011;12356;49.386;8.688;2023-07-22T12:16:46;2.03;;;1.80;;
24216;SDS011;12356;49.386;8.688;2023-07-22T12:19:17;2.40;;;1.70;;
24216;SDS011;12356;49.386;8.688;2023-07-22T12:21:47;4.43;;;1.90;;
24216;SDS011;12356;49.386;8.688;2023-07-22T12:24:19;1.98;;;1.77;;
24216;SDS011;12356;49.386;8.688;2023-07-22T12:26:49;3.47;;;1.80;;
24216;SDS011;12356;49.386;8.688;2023-07-22T12:29:20;2.17;;;1.70;;
24216;SDS011;12356;49.386;8.688;2023-07-22T12:31:52;3.65;;;1.70;;
24216;SDS011;12356;49.386;8.688;2023-07-22T12:34:22;2.10;;;1.77;;
24216;SDS011;12356;49.386;8.688;2023-07-22T12:36:53;2.47;;;1.67;;
24216;SDS011;12356;49.386;8.688;2023-07-22T12:39:23;2.35;;;1.90;;
24216;SDS011;12356;49.386;8.688;2023-07-22T12:41:54;3.55;;;1.77;;
24216;SDS011;12356;49.386;8.688;2023-07-22T12:44:24;3.85;;;1.75;;
24216;SDS011;12356;49.386;8.688;2023-07-22T12:46:55;3.13;;;1.80;;
24216;SDS011;12356;49.386;8.688;2023-07-22T12:49:25;4.20;;;1.65;;
24216;SDS011;12356;49.386;8.688;2023-07-22T12:51:56;4.63;;;2.00;;
24216;SDS011;12356;49.386;8.688;2023-07-22T12:54:33;3.30;;;1.90;;
24216;SDS011;12356;49.386;8.688;2023-07-22T12:57:04;5.20;;;1.80;;
24216;SDS011;12356;49.386;8.688;2023-07-22T12:59:35;1.70;;;1.52;;
24216;SDS011;12356;49.386;8.688;2023-07-22T13:02:05;3.83;;;1.67;;
24216;SDS011;12356;49.386;8.688;2023-07-22T13:04:36;4.97;;;1.80;;
24216;SDS011;12356;49.386;8.688;2023-07-22T13:07:06;3.15;;;1.80;;
24216;SDS011;12356;49.386;8.688;2023-07-22T13:09:37;2.53;;;1.60;;
24216;SDS011;12356;49.386;8.688;2023-07-22T13:12:08;2.03;;;1.65;;
24216;SDS011;12356;49.386;8.688;2023-07-22T13:14:38;3.53;;;1.83;;
24216;SDS011;12356;49.386;8.688;2023-07-22T13:17:09;2.40;;;1.88;;
24216;SDS011;12356;49.386;8.688;2023-07-22T13:19:39;3.53;;;1.80;;
24216;SDS011;12356;49.386;8.688;2023-07-22T13:22:10;2.22;;;1.80;;
24216;SDS011;12356;49.386;8.688;2023-07-22T13:24:40;2.05;;;1.85;;
24216;SDS011;12356;49.386;8.688;2023-07-22T13:27:11;2.58;;;1.70;;
24216;SDS011;12356;49.386;8.688;2023-07-22T13:29:42;2.10;;;1.90;;
24216;SDS011;12356;49.386;8.688;2023-07-22T13:32:13;4.28;;;1.95;;
24216;SDS011;12356;49.386;8.688;2023-07-22T13:34:43;3.83;;;2.00;;
24216;SDS011;12356;49.386;8.688;2023-07-22T13:37:14;3.60;;;2.00;;
24216;SDS011;12356;49.386;8.688;2023-07-22T13:39:44;3.28;;;1.90;;
24216;SDS011;12356;49.386;8.688;2023-07-22T13:42:15;2.65;;;1.90;;
24216;SDS011;12356;49.386;8.688;2023-07-22T13:44:45;3.03;;;2.13;;
24216;SDS011;12356;49.386;8.688;2023-07-22T13:47:16;2.95;;;2.10;;
24216;SDS011;12356;49.386;8.688;2023-07-22T13:49:46;4.55;;;2.20;;
24216;SDS011;12356;49.386;8.688;2023-07-22T13:52:17;3.15;;;2.05;;
24216;SDS011;12356;49.386;8.688;2023-07-22T13:54:48;4.78;;;2.20;;
24216;SDS011;12356;49.386;8.688;2023-07-22T13:57:18;4.20;;;2.20;;
24216;SDS011;12356;49.386;8.688;2023-07-22T13:59:49;3.35;;;2.15;;
24216;SDS011;12356;49.386;8.688;2023-07-22T14:02:19;4.47;;;2.22;;
24216;SDS011;12356;49.386;8.688;2023-07-22T14:04:50;3.97;;;1.92;;
24216;SDS011;12356;49.386;8.688;2023-07-22T14:07:21;4.38;;;2.50;;
24216;SDS011;12356;49.386;8.688;2023-07-22T14:09:51;3.65;;;2.25;;
24216;SDS011;12356;49.386;8.688;2023-07-22T14:12:23;4.20;;;2.13;;
24216;SDS011;12356;49.386;8.688;2023-07-22T14:14:53;3.75;;;2.20;;
24216;SDS011;12356;49.386;8.688;2023-07-22T14:17:24;4.45;;;2.33;;
24216;SDS011;12356;49.386;8.688;2023-07-22T14:19:55;3.10;;;2.10;;
24216;SDS011;12356;49.386;8.688;2023-07-22T14:22:26;4.22;;;2.30;;
24216;SDS011;12356;49.386;8.688;2023-07-22T14:24:56;3.70;;;2.10;;
24216;SDS011;12356;49.386;8.688;2023-07-22T14:27:27;3.72;;;2.30;;
24216;SDS011;12356;49.386;8.688;2023-07-22T14:29:57;4.05;;;2.20;;
24216;SDS011;12356;49.386;8.688;2023-07-22T14:32:28;3.13;;;2.40;;
24216;SDS011;12356;49.386;8.688;2023-07-22T14:34:58;3.40;;;2.38;;
24216;SDS011;12356;49.386;8.688;2023-07-22T14:37:29;2.95;;;2.17;;
24216;SDS011;12356;49.386;8.688;2023-07-22T14:39:59;2.80;;;2.40;;
24216;SDS011;12356;49.386;8.688;2023-07-22T14:42:30;4.15;;;2.42;;
24216;SDS011;12356;49.386;8.688;2023-07-22T14:45:01;4.22;;;2.30;;
24216;SDS011;12356;49.386;8.688;2023-07-22T14:47:31;3.70;;;2.33;;
24216;SDS011;12356;49.386;8.688;2023-07-22T14:50:02;3.60;;;2.45;;
24216;SDS011;12356;49.386;8.688;2023-07-22T14:52:32;2.40;;;2.10;;
24216;SDS011;12356;49.386;8.688;2023-07-22T14:55:03;4.63;;;2.50;;
24216;SDS011;12356;49.386;8.688;2023-07-22T14:57:34;3.30;;;2.30;;
24216;SDS011;12356;49.386;8.688;2023-07-22T15:00:05;3.17;;;2.40;;
24216;SDS011;12356;49.386;8.688;2023-07-22T15:02:36;4.88;;;2.38;;
24216;SDS011;12356;49.386;8.688;2023-07-22T15:05:07;3.40;;;2.30;;
24216;SDS011;12356;49.386;8.688;2023-07-22T15:07:38;3.08;;;2.30;;
24216;SDS011;12356;49.386;8.688;2023-07-22T15:10:09;2.70;;;2.40;;
24216;SDS011;12356;49.386;8.688;2023-07-22T15:12:39;4.05;;;2.30;;
24216;SDS011;12356;49.386;8.688;2023-07-22T15:15:11;5.88;;;2.63;;
24216;SDS011;12356;49.386;8.688;2023-07-22T15:17:42;5.03;;;2.15;;
24216;SDS011;12356;49.386;8.688;2023-07-22T15:20:12;4.05;;;2.40;;